Time;durP1;ratioP1;P1;durP2;ratioP2;P2;SDS_P1;SDS_P2;PMS_P1;PMS_P2;Temp;Humidity;BMP_temperature;BMP_pressure;BME280_temperature;BME280_humidity;BME280_pressure;Samples;Min_cycle;Max_cycle;Signal;HPM_P1;HPM_P2
2022/05/20 00:02:04;;;;;;;;;1.00;1.00;;;;;21.97;46.77;101600.69;5058324;28;45891;-66
2022/05/20 00:04:30;;;;;;;;;2.50;1.50;;;;;21.90;46.48;101588.47;5059364;28;45328;-66
2022/05/20 00:06:55;;;;;;;;;3.00;3.00;;;;;21.80;47.07;101566.44;5065584;27;45710;-66
2022/05/20 00:09:21;;;;;;;;;4.25;1.00;;;;;21.90;46.78;101580.31;5066822;28;47921;-66
2022/05/20 00:11:46;;;;;;;;;2.00;1.00;;;;;21.97;46.78;101581.66;5075998;27;45493;-66
2022/05/20 00:14:11;;;;;;;;;2.25;1.75;;;;;22.05;46.38;101597.44;5076721;28;45552;-66
2022/05/20 00:16:37;;;;;;;;;1.25;1.25;;;;;21.98;46.59;101584.25;5064981;28;45307;-66
2022/05/20 00:19:04;;;;;;;;;1.50;1.50;;;;;21.96;46.74;101580.75;5061743;28;46555;-66
2022/05/20 00:21:31;;;;;;;;;3.25;1.00;;;;;21.84;46.22;101571.59;5061493;28;45373;-66
2022/05/20 00:23:56;;;;;;;;;3.00;2.00;;;;;21.86;46.60;101567.91;5061009;28;45308;-66
2022/05/20 00:26:22;;;;;;;;;2.00;1.00;;;;;21.83;46.71;101572.59;5077084;27;45740;-66
2022/05/20 00:28:48;;;;;;;;;1.00;1.00;;;;;21.74;46.22;101566.88;5060106;28;46105;-66
2022/05/20 00:31:16;;;;;;;;;1.00;1.00;;;;;21.73;46.64;101574.13;5061331;28;45161;-66
2022/05/20 00:33:41;;;;;;;;;1.75;1.00;;;;;21.68;46.00;101572.72;5061558;28;45466;-66
2022/05/20 00:36:08;;;;;;;;;15.00;13.00;;;;;21.67;46.04;101580.00;5063444;28;45644;-66
2022/05/20 00:38:34;;;;;;;;;1.25;1.00;;;;;21.56;46.09;101563.53;5069448;28;45648;-66
2022/05/20 00:41:00;;;;;;;;;1.25;1.25;;;;;21.64;46.41;101575.63;5061206;28;45673;-66
2022/05/20 00:43:25;;;;;;;;;3.00;1.75;;;;;21.60;46.28;101573.22;5061732;28;45528;-66
2022/05/20 00:45:56;;;;;;;;;2.00;2.00;;;;;21.52;45.86;101567.41;5074893;27;45264;-66
2022/05/20 00:48:22;;;;;;;;;2.50;1.25;;;;;21.49;46.38;101567.63;5065995;28;46833;-66
2022/05/20 00:50:56;;;;;;;;;1.00;1.00;;;;;21.47;45.95;101570.44;5061142;28;45380;-66
2022/05/20 00:53:26;;;;;;;;;3.50;1.00;;;;;21.52;46.13;101561.97;5061578;28;45453;-66
2022/05/20 00:55:51;;;;;;;;;3.00;1.25;;;;;21.52;46.34;101562.88;5061072;28;45466;-66
2022/05/20 00:58:20;;;;;;;;;1.00;1.00;;;;;21.50;45.84;101558.50;5063020;28;45489;-66
2022/05/20 01:00:51;;;;;;;;;2.00;2.00;;;;;21.47;46.15;101562.31;5047577;28;45383;-66
2022/05/20 01:03:20;;;;;;;;;1.00;1.00;;;;;21.39;45.94;101551.03;5059412;28;45476;-65
2022/05/20 01:05:49;;;;;;;;;1.00;1.00;;;;;21.44;46.11;101555.19;5046624;28;45398;-66
2022/05/20 01:08:23;;;;;;;;;1.00;1.00;;;;;21.51;45.98;101569.25;5079512;27;47219;-66
2022/05/20 01:10:49;;;;;;;;;1.75;1.75;;;;;21.46;46.16;101552.38;5049898;28;45386;-66
2022/05/20 01:13:18;;;;;;;;;1.00;1.00;;;;;21.49;45.84;101551.34;5074522;28;45727;-66
2022/05/20 01:15:44;;;;;;;;;1.00;1.00;;;;;21.54;46.55;101550.06;5065045;27;45228;-66
2022/05/20 01:18:12;;;;;;;;;3.00;2.00;;;;;21.54;45.67;101528.31;5059746;28;45815;-66
2022/05/20 01:20:42;;;;;;;;;1.00;1.00;;;;;21.49;45.98;101519.59;5060856;28;45362;-66
2022/05/20 01:23:14;;;;;;;;;1.00;1.00;;;;;21.53;46.35;101522.97;5047323;28;45275;-66
2022/05/20 01:25:42;;;;;;;;;1.00;1.00;;;;;21.55;46.26;101516.50;5060573;28;45957;-66
2022/05/20 01:28:08;;;;;;;;;2.25;1.00;;;;;21.55;45.95;101511.06;5077724;27;48394;-66
2022/05/20 01:30:34;;;;;;;;;2.00;0.50;;;;;21.55;46.07;101508.34;5071953;28;45790;-66
2022/05/20 01:33:06;;;;;;;;;2.00;2.00;;;;;21.61;46.17;101513.34;5049060;27;45352;-66
2022/05/20 01:35:42;;;;;;;;;1.00;1.00;;;;;21.52;46.12;101499.50;5058497;28;45655;-66
2022/05/20 01:38:10;;;;;;;;;1.25;1.25;;;;;21.59;46.04;101500.84;5049594;28;45304;-66
2022/05/20 01:40:56;;;;;;;;;2.00;1.00;;;;;21.60;45.96;101494.44;5053282;27;45395;-66
2022/05/20 01:43:34;;;;;;;;;1.00;1.00;;;;;21.55;45.84;101491.16;5050492;27;45453;-66
2022/05/20 01:46:22;;;;;;;;;2.00;2.00;;;;;21.54;46.01;101489.44;5055454;27;45410;-66
2022/05/20 01:49:10;;;;;;;;;0.25;0.25;;;;;21.50;45.88;101494.19;5054570;28;46332;-66
2022/05/20 01:52:08;;;;;;;;;1.75;1.75;;;;;21.51;45.68;101493.22;5071429;27;45627;-66
2022/05/20 01:54:55;;;;;;;;;3.50;1.50;;;;;21.50;45.50;101483.34;5043763;28;45257;-66
2022/05/20 01:57:31;;;;;;;;;1.00;1.00;;;;;21.43;46.04;101487.38;5053505;28;46420;-66
2022/05/20 02:00:13;;;;;;;;;1.00;1.00;;;;;21.44;46.12;101484.56;5063654;27;47166;-66
2022/05/20 02:03:05;;;;;;;;;1.50;1.00;;;;;21.44;46.19;101480.97;5048012;28;45364;-66
2022/05/20 02:05:38;;;;;;;;;1.75;1.75;;;;;21.40;46.21;101477.59;5051909;28;45736;-66
2022/05/20 02:08:13;;;;;;;;;1.00;1.00;;;;;21.41;46.23;101473.91;5060781;28;45477;-66
2022/05/20 02:10:44;;;;;;;;;3.50;2.25;;;;;21.37;46.36;101472.38;5052837;28;47909;-66
2022/05/20 02:13:13;;;;;;;;;1.75;1.00;;;;;21.36;46.02;101473.34;5064874;27;45362;-66
2022/05/20 02:15:47;;;;;;;;;0.75;0.25;;;;;21.38;46.01;101467.81;5060165;28;45174;-66
2022/05/20 02:18:19;;;;;;;;;2.00;2.00;;;;;21.35;46.21;101454.41;5061481;28;45418;-66
2022/05/20 02:20:53;;;;;;;;;3.00;2.00;;;;;21.36;46.03;101461.59;5084752;27;47438;-66
2022/05/20 02:23:26;;;;;;;;;1.00;1.00;;;;;21.37;46.16;101464.22;5058114;28;45295;-66
2022/05/20 02:25:57;;;;;;;;;1.00;1.00;;;;;21.40;46.13;101450.44;5058775;28;45248;-66
2022/05/20 02:28:32;;;;;;;;;4.25;2.00;;;;;21.43;46.14;101462.94;5049876;28;45270;-66
2022/05/20 02:30:58;;;;;;;;;3.00;1.00;;;;;21.42;45.88;101458.50;5063002;28;47596;-66
2022/05/20 02:33:26;;;;;;;;;1.75;1.00;;;;;21.35;46.51;101458.03;5059576;28;45160;-66
2022/05/20 02:35:51;;;;;;;;;2.00;2.00;;;;;21.33;46.83;101454.53;5058377;28;45520;-66
2022/05/20 02:38:22;;;;;;;;;1.25;1.25;;;;;21.29;46.80;101453.88;5064762;28;45514;-66
2022/05/20 02:40:51;;;;;;;;;2.75;2.00;;;;;21.27;47.03;101453.09;5059649;28;45509;-66
2022/05/20 02:43:17;;;;;;;;;2.00;2.00;;;;;21.28;46.89;101453.97;5057700;28;45624;-66
2022/05/20 02:45:44;;;;;;;;;2.50;1.75;;;;;21.30;47.20;101446.59;5073677;28;45347;-66
2022/05/20 02:48:11;;;;;;;;;2.00;1.25;;;;;21.28;46.82;101440.38;5066912;28;45310;-66
2022/05/20 02:50:36;;;;;;;;;2.00;2.00;;;;;21.31;47.11;101442.91;5053173;28;47001;-66
2022/05/20 02:53:01;;;;;;;;;1.50;1.50;;;;;21.26;47.05;101431.47;5055495;28;45441;-66
2022/05/20 02:55:27;;;;;;;;;1.50;1.50;;;;;21.33;46.67;101442.81;5063090;28;45334;-66
2022/05/20 02:57:53;;;;;;;;;2.00;2.00;;;;;21.36;46.65;101443.47;5064198;28;45390;-66
2022/05/20 03:05:51;;;;;;;;;2.25;2.25;;;;;21.35;47.41;101440.84;5083879;27;45723;-66
2022/05/20 03:08:17;;;;;;;;;4.00;3.00;;;;;21.32;47.41;101439.22;5082531;27;45262;-66
2022/05/20 03:10:42;;;;;;;;;1.00;1.00;;;;;21.31;47.42;101447.47;5076763;27;46198;-66
2022/05/20 03:13:08;;;;;;;;;1.00;1.00;;;;;21.35;47.05;101441.75;5081955;27;45381;-66
2022/05/20 03:15:36;;;;;;;;;1.00;1.00;;;;;21.37;47.34;101436.22;5083268;27;45225;-66
2022/05/20 03:18:01;;;;;;;;;2.00;2.00;;;;;21.35;47.13;101429.97;5085480;27;45222;-66
2022/05/20 03:20:26;;;;;;;;;2.00;2.00;;;;;21.31;47.54;101434.75;5073787;27;45471;-66
2022/05/20 03:22:52;;;;;;;;;2.50;1.00;;;;;21.26;47.41;101439.63;5063727;27;45222;-66
2022/05/20 04:47:52;;;;;;;;;4.00;3.00;;;;;21.13;48.65;101416.97;5069119;27;75349;-66
2022/05/20 04:50:18;;;;;;;;;3.25;3.00;;;;;21.09;48.69;101430.75;5073001;28;45501;-66
2022/05/20 04:52:43;;;;;;;;;2.25;2.25;;;;;21.01;48.83;101430.38;5072003;28;45358;-66
2022/05/20 04:55:09;;;;;;;;;2.50;2.00;;;;;21.03;48.65;101430.28;5074536;27;45456;-66
2022/05/20 04:57:44;;;;;;;;;4.25;3.00;;;;;21.08;48.92;101439.88;5070589;27;45410;-66
2022/05/20 05:00:16;;;;;;;;;2.50;2.50;;;;;21.11;48.71;101441.50;5065368;28;45214;-66
2022/05/20 05:02:41;;;;;;;;;2.50;2.50;;;;;21.13;48.90;101447.69;5064775;28;45378;-66
2022/05/20 05:05:10;;;;;;;;;2.00;2.00;;;;;21.08;49.10;101441.69;5079127;27;45535;-66
2022/05/20 05:07:38;;;;;;;;;3.00;3.00;;;;;21.11;49.11;101449.66;5079645;28;45349;-66
2022/05/20 05:10:03;;;;;;;;;2.50;2.25;;;;;21.09;48.83;101446.16;5079589;27;45254;-66
2022/05/20 05:12:30;;;;;;;;;5.00;2.75;;;;;21.04;48.98;101438.31;5078721;28;45295;-66
2022/05/20 05:14:56;;;;;;;;;3.00;2.00;;;;;21.03;49.61;101435.69;5077289;27;45629;-66
2022/05/20 05:20:12;;;;;;;;;3.00;2.25;;;;;21.06;49.22;101436.38;5068640;28;45326;-66
2022/05/20 05:22:38;;;;;;;;;5.75;4.00;;;;;21.08;48.96;101434.44;5074666;28;45627;-66
2022/05/20 05:25:04;;;;;;;;;4.50;4.00;;;;;21.16;49.63;101431.22;5069663;27;45762;-66
2022/05/20 05:27:29;;;;;;;;;3.50;3.50;;;;;21.19;49.91;101430.16;5067390;28;46312;-66
2022/05/20 05:29:54;;;;;;;;;4.25;4.00;;;;;21.24;49.08;101430.72;5069294;27;45369;-66
2022/05/20 05:32:20;;;;;;;;;4.00;4.00;;;;;21.27;49.45;101436.81;5061650;27;48577;-66
2022/05/20 05:34:45;;;;;;;;;3.50;3.50;;;;;21.32;49.74;101432.91;5075441;28;45555;-67
2022/05/20 05:37:11;;;;;;;;;6.50;5.00;;;;;21.36;49.31;101427.16;5064521;28;45925;-66
2022/05/20 05:39:37;;;;;;;;;5.00;5.00;;;;;21.35;49.61;101417.31;5077480;27;45334;-66
2022/05/20 05:42:03;;;;;;;;;6.25;6.00;;;;;21.42;49.67;101405.03;5068341;28;45399;-68
2022/05/20 05:44:29;;;;;;;;;6.00;5.00;;;;;21.45;49.27;101412.97;5067762;27;45547;-69
2022/05/20 05:46:55;;;;;;;;;10.25;8.75;;;;;21.44;49.29;101403.09;5061720;28;45270;-69
2022/05/20 05:49:27;;;;;;;;;7.25;7.25;;;;;21.37;49.27;101390.91;5070971;28;46184;-68
2022/05/20 05:51:54;;;;;;;;;5.50;5.50;;;;;21.27;49.67;101377.06;5077373;28;45392;-69
2022/05/20 05:54:20;;;;;;;;;5.75;4.50;;;;;21.20;49.72;101364.91;5070682;28;45205;-68
2022/05/20 05:56:45;;;;;;;;;5.00;4.25;;;;;21.23;50.14;101393.66;5061042;28;45227;-69
2022/05/20 05:59:10;;;;;;;;;5.25;3.25;;;;;21.22;49.92;101397.38;5068294;28;45232;-68
2022/05/20 06:01:36;;;;;;;;;3.50;3.00;;;;;21.22;50.29;101410.94;5082159;27;45392;-68
2022/05/20 06:04:01;;;;;;;;;5.00;3.00;;;;;21.25;50.07;101413.44;5072240;27;45486;-68
2022/05/20 06:06:27;;;;;;;;;4.00;3.00;;;;;21.21;50.47;101409.19;5068032;28;46106;-68
2022/05/20 06:08:52;;;;;;;;;6.50;6.00;;;;;21.25;51.32;101430.63;5064459;27;45330;-69
2022/05/20 06:11:18;;;;;;;;;10.50;7.75;;;;;21.31;51.24;101433.91;5067239;27;45725;-69
2022/05/20 06:13:43;;;;;;;;;7.75;7.75;;;;;21.28;51.51;101427.69;5075283;28;45738;-72
2022/05/20 06:16:08;;;;;;;;;9.00;7.00;;;;;21.34;51.63;101439.97;5077613;28;48205;-73
2022/05/20 06:18:34;;;;;;;;;7.25;6.75;;;;;21.29;52.09;101413.13;5080183;27;45364;-72
2022/05/20 06:21:00;;;;;;;;;4.50;3.75;;;;;21.32;52.40;101422.03;5072120;27;45476;-72
2022/05/20 06:23:26;;;;;;;;;4.00;4.00;;;;;21.32;53.00;101414.78;5069136;27;45452;-72
2022/05/20 06:25:51;;;;;;;;;4.00;4.00;;;;;21.33;52.75;101380.34;5073495;28;45917;-73
2022/05/20 06:28:19;;;;;;;;;7.00;5.00;;;;;21.28;53.02;101356.22;5074289;27;45441;-72
2022/05/20 06:30:45;;;;;;;;;6.00;5.00;;;;;21.22;53.31;101346.66;5076318;28;45392;-72
2022/05/20 06:33:11;;;;;;;;;3.00;3.00;;;;;21.14;53.27;101312.88;5062738;27;45532;-73
2022/05/20 06:41:06;;;;;;;;;4.00;2.75;;;;;21.00;54.49;101301.09;5064201;27;45452;-73
2022/05/20 06:43:32;;;;;;;;;4.00;4.00;;;;;20.97;54.82;101312.16;5066158;27;45527;-74
2022/05/20 06:46:00;;;;;;;;;7.00;7.00;;;;;21.00;55.49;101332.78;5069663;27;46080;-74
2022/05/20 06:48:37;;;;;;;;;5.75;5.75;;;;;21.03;55.54;101330.75;5062044;28;45583;-70
2022/05/20 06:51:07;;;;;;;;;7.25;6.25;;;;;21.07;55.50;101347.69;5059879;27;45361;-74
2022/05/20 06:53:33;;;;;;;;;6.50;4.50;;;;;21.09;56.27;101303.16;5079770;27;45778;-73
2022/05/20 06:55:58;;;;;;;;;6.25;6.00;;;;;21.01;55.91;101242.25;5057619;27;46389;-74
2022/05/20 06:58:24;;;;;;;;;5.00;5.00;;;;;21.05;55.60;101209.38;5066009;27;45552;-73
2022/05/20 07:00:49;;;;;;;;;6.00;4.75;;;;;20.98;55.54;101191.78;5073711;28;45350;-74
2022/05/20 07:03:14;;;;;;;;;4.00;4.00;;;;;20.92;55.37;101168.63;5077024;27;45427;-74
2022/05/20 07:05:40;;;;;;;;;6.25;6.25;;;;;20.96;56.10;101173.84;5073334;27;47258;-71
2022/05/20 07:08:06;;;;;;;;;15.25;12.75;;;;;20.95;55.81;101167.56;5069406;27;45436;-73
2022/05/20 07:10:31;;;;;;;;;12.00;11.00;;;;;20.85;56.82;101131.19;5071969;27;45398;-73
2022/05/20 07:12:57;;;;;;;;;9.00;8.75;;;;;20.95;56.51;101131.41;5078855;27;45499;-71
2022/05/20 07:15:22;;;;;;;;;12.00;10.00;;;;;20.94;56.51;101126.97;5066800;27;47482;-74
2022/05/20 07:17:48;;;;;;;;;7.50;7.00;;;;;20.92;56.61;101144.22;5058931;27;46133;-73
2022/05/20 07:20:13;;;;;;;;;3.75;2.50;;;;;20.89;57.02;101139.00;5084519;27;45648;-73
2022/05/20 07:22:39;;;;;;;;;8.50;6.25;;;;;20.83;57.30;101142.16;5075549;27;45825;-73
2022/05/20 07:25:05;;;;;;;;;6.50;5.25;;;;;20.90;57.05;101175.16;5068886;27;47417;-74
2022/05/20 07:27:30;;;;;;;;;5.25;5.25;;;;;20.80;57.61;101177.63;5074146;27;45558;-74
2022/05/20 07:29:56;;;;;;;;;7.00;6.50;;;;;20.90;57.69;101181.44;5066479;28;45434;-74
2022/05/20 07:32:22;;;;;;;;;8.50;7.00;;;;;20.82;57.51;101161.25;5064401;27;45420;-73
2022/05/20 07:34:48;;;;;;;;;9.00;6.50;;;;;20.87;57.45;101169.94;5077109;27;45421;-72
2022/05/20 07:37:13;;;;;;;;;5.50;5.50;;;;;20.93;58.40;101193.91;5069649;28;45258;-71
2022/05/20 07:39:38;;;;;;;;;8.25;7.00;;;;;20.90;58.72;101195.00;5060634;28;45940;-71
2022/05/20 07:42:04;;;;;;;;;5.75;5.50;;;;;20.87;58.62;101192.50;5061567;27;45462;-72
2022/05/20 07:44:30;;;;;;;;;8.50;7.25;;;;;21.04;58.54;101223.91;5080436;28;48114;-72
2022/05/20 07:46:55;;;;;;;;;9.25;7.25;;;;;21.01;59.02;101253.97;5078055;27;45526;-76
2022/05/20 07:49:20;;;;;;;;;7.25;7.25;;;;;21.14;58.99;101266.72;5060578;28;45471;-76
2022/05/20 07:51:50;;;;;;;;;7.00;6.00;;;;;21.13;58.75;101243.25;5061482;27;45866;-75
2022/05/20 07:54:22;;;;;;;;;9.75;9.25;;;;;21.11;59.39;101303.06;5067787;28;45360;-75
2022/05/20 07:56:57;;;;;;;;;8.50;8.50;;;;;21.17;59.61;101347.94;5073122;28;45519;-75
2022/05/20 07:59:49;;;;;;;;;7.75;6.25;;;;;21.10;59.71;101275.06;5065868;28;45474;-75
2022/05/20 08:02:19;;;;;;;;;8.00;7.00;;;;;21.18;59.61;101273.66;5058400;28;45532;-76
2022/05/20 08:05:01;;;;;;;;;11.00;9.00;;;;;21.17;59.76;101272.78;5076094;27;46166;-76
2022/05/20 08:07:36;;;;;;;;;9.50;8.50;;;;;21.16;59.99;101243.91;5067616;27;45713;-76
2022/05/20 08:10:09;;;;;;;;;9.25;7.75;;;;;21.27;59.98;101264.91;5086696;27;45386;-75
2022/05/20 08:12:34;;;;;;;;;7.75;6.00;;;;;21.30;60.38;101253.81;5074676;27;45550;-73
2022/05/20 08:15:00;;;;;;;;;8.75;7.75;;;;;21.29;60.24;101242.06;5064098;27;46564;-69
2022/05/20 08:17:26;;;;;;;;;9.00;7.50;;;;;21.23;59.63;101242.53;5076818;27;45428;-73
2022/05/20 08:19:53;;;;;;;;;10.75;8.25;;;;;21.28;60.08;101245.78;5078106;28;45661;-72
2022/05/20 08:22:23;;;;;;;;;6.75;6.75;;;;;21.26;60.07;101242.28;5073907;27;46346;-73
2022/05/20 08:24:54;;;;;;;;;9.25;8.25;;;;;21.40;60.93;101224.16;5061753;27;45707;-73
2022/05/20 08:27:21;;;;;;;;;10.50;9.75;;;;;21.28;60.13;101218.63;5067954;27;45381;-73
2022/05/20 08:29:46;;;;;;;;;5.00;5.00;;;;;21.19;60.45;101204.81;5080324;27;45230;-73
2022/05/20 08:32:12;;;;;;;;;7.00;6.00;;;;;21.35;60.53;101229.94;5075730;27;45556;-77
2022/05/20 08:34:38;;;;;;;;;9.50;8.00;;;;;21.46;60.83;101254.47;5075281;27;45433;-74
2022/05/20 08:37:04;;;;;;;;;10.75;8.75;;;;;21.53;61.27;101243.22;5064282;27;45437;-73
2022/05/20 08:39:29;;;;;;;;;9.00;9.00;;;;;21.54;61.37;101263.97;5070359;28;45454;-74
2022/05/20 08:41:54;;;;;;;;;10.75;8.50;;;;;21.45;61.08;101287.16;5073034;27;45397;-73
2022/05/20 08:44:22;;;;;;;;;7.50;7.50;;;;;21.57;61.41;101347.97;5058114;28;47304;-74
2022/05/20 08:46:48;;;;;;;;;9.50;9.50;;;;;21.49;60.93;101351.19;5064813;28;45586;-74
2022/05/20 08:49:21;;;;;;;;;12.00;12.00;;;;;21.43;61.25;101386.88;5060609;28;45449;-74
2022/05/20 08:51:52;;;;;;;;;15.00;10.50;;;;;21.64;61.38;101409.91;5067841;28;45503;-74
2022/05/20 08:54:19;;;;;;;;;12.50;12.50;;;;;21.44;61.50;101271.88;5073788;27;45381;-73
2022/05/20 08:56:45;;;;;;;;;11.00;10.00;;;;;21.58;61.55;101246.47;5067338;28;45789;-73
2022/05/20 08:59:15;;;;;;;;;12.75;11.25;;;;;21.48;61.66;101232.66;5065671;27;45402;-74
2022/05/20 09:01:45;;;;;;;;;10.00;9.00;;;;;21.60;62.24;101272.56;5080650;28;45322;-73
2022/05/20 09:04:16;;;;;;;;;12.75;11.00;;;;;21.55;61.80;101279.28;5076875;27;47474;-73
2022/05/20 09:07:04;;;;;;;;;12.75;11.00;;;;;21.64;62.66;101284.06;5065008;28;45423;-74
2022/05/20 09:09:46;;;;;;;;;11.50;11.50;;;;;21.64;62.65;101279.50;5096698;27;46333;-74
2022/05/20 09:12:26;;;;;;;;;11.75;11.75;;;;;21.67;62.64;101250.38;5073977;28;45386;-74
2022/05/20 09:18:04;;;;;;;;;10.50;10.25;;;;;21.71;62.28;101252.78;5068768;28;45191;-74
2022/05/20 09:20:30;;;;;;;;;13.25;13.25;;;;;21.76;62.34;101261.47;5060249;28;45424;-74
2022/05/20 09:23:00;;;;;;;;;17.00;16.25;;;;;21.69;62.95;101235.72;5062868;28;46362;-74
2022/05/20 09:25:29;;;;;;;;;13.25;11.75;;;;;21.59;63.30;101205.63;5060960;28;46229;-74
2022/05/20 09:28:14;;;;;;;;;17.25;17.25;;;;;21.72;63.74;101199.28;5070272;28;45566;-74
2022/05/20 09:30:42;;;;;;;;;17.50;16.50;;;;;21.65;64.16;101188.88;5075015;28;45355;-74
2022/05/20 09:33:27;;;;;;;;;17.50;17.50;;;;;21.69;62.96;101194.09;5071708;28;45508;-74
2022/05/20 09:35:58;;;;;;;;;16.25;13.25;;;;;21.86;62.92;101247.22;5068106;28;46428;-73
2022/05/20 09:38:32;;;;;;;;;22.75;17.75;;;;;21.87;62.85;101317.78;5073460;28;45430;-73
2022/05/20 09:40:58;;;;;;;;;16.50;16.50;;;;;21.90;62.31;101412.69;5060462;28;45416;-73
2022/05/20 09:43:35;;;;;;;;;14.25;13.75;;;;;21.92;62.60;101435.19;5076370;28;45637;-73
2022/05/20 09:46:03;;;;;;;;;18.25;16.50;;;;;21.88;63.91;101334.94;5078166;27;45486;-73
2022/05/20 09:48:51;;;;;;;;;18.25;15.75;;;;;21.85;63.15;101178.41;5063169;28;45330;-73
2022/05/20 09:51:38;;;;;;;;;21.75;19.50;;;;;21.74;63.16;101084.09;5058873;28;45318;-74
2022/05/20 09:54:28;;;;;;;;;17.25;16.50;;;;;21.62;63.92;101144.78;5074189;28;45525;-77
2022/05/20 09:57:12;;;;;;;;;21.25;19.25;;;;;21.65;64.11;101193.44;5057956;27;45474;-71
2022/05/20 09:59:40;;;;;;;;;14.50;13.75;;;;;21.80;64.50;101205.94;5070031;28;45671;-72
2022/05/20 10:02:39;;;;;;;;;22.50;21.00;;;;;21.86;65.08;101185.59;5062712;28;46048;-71
2022/05/20 10:05:14;;;;;;;;;22.25;21.25;;;;;21.78;64.88;101152.66;5066272;28;45971;-71
2022/05/20 10:07:52;;;;;;;;;29.25;25.75;;;;;21.91;64.68;101167.09;5078889;27;47059;-71
2022/05/20 10:10:43;;;;;;;;;31.00;31.00;;;;;21.97;64.98;101190.25;5071154;27;45677;-72
2022/05/20 10:13:22;;;;;;;;;22.00;20.75;;;;;21.84;64.37;101150.38;5077087;28;45483;-71
2022/05/20 10:15:51;;;;;;;;;28.00;26.50;;;;;22.00;64.30;101174.56;5072719;27;45434;-72
2022/05/20 10:18:34;;;;;;;;;26.50;24.25;;;;;22.01;64.08;101176.28;5077653;27;47542;-72
2022/05/20 10:21:23;;;;;;;;;26.50;23.50;;;;;22.08;64.41;101189.44;5063696;27;45547;-72
2022/05/20 10:24:17;;;;;;;;;24.25;22.50;;;;;22.09;64.64;101178.47;5077653;28;45645;-72
2022/05/20 10:27:16;;;;;;;;;27.75;24.00;;;;;21.99;64.47;101180.13;5071990;27;46204;-71
2022/05/20 10:33:11;;;;;;;;;21.25;19.00;;;;;21.96;64.43;101170.34;5051140;28;45719;-73
2022/05/20 10:35:37;;;;;;;;;24.50;23.00;;;;;22.23;64.47;101198.31;5087312;27;45263;-73
2022/05/20 10:38:37;;;;;;;;;32.75;29.75;;;;;22.12;64.17;101167.38;5076756;28;45451;-74
2022/05/20 10:41:31;;;;;;;;;25.50;23.50;;;;;22.25;64.15;101185.47;5071922;27;46188;-74
2022/05/20 10:50:12;;;;;;;;;32.00;30.25;;;;;22.36;64.66;101159.22;5077545;28;45414;-74
2022/05/20 10:52:37;;;;;;;;;28.00;26.00;;;;;22.34;64.68;101147.59;5078559;27;45380;-74
2022/05/20 10:55:41;;;;;;;;;33.00;29.75;;;;;22.38;64.41;101129.19;5078575;27;45426;-74
2022/05/20 10:58:21;;;;;;;;;31.00;27.50;;;;;22.43;63.92;101140.59;5078768;28;45540;-74
2022/05/20 11:00:52;;;;;;;;;31.50;28.50;;;;;22.28;63.86;101128.13;5067106;27;45554;-73
2022/05/20 11:03:56;;;;;;;;;26.25;23.75;;;;;22.52;64.10;101178.00;5070862;27;46312;-74
2022/05/20 11:06:41;;;;;;;;;33.25;29.00;;;;;22.49;64.83;101178.22;5068675;28;45603;-74
2022/05/20 11:09:15;;;;;;;;;30.25;29.50;;;;;22.60;64.37;101179.25;5068409;27;45552;-71
2022/05/20 11:11:59;;;;;;;;;34.75;32.25;;;;;22.64;65.64;101184.34;5071554;27;45882;-70
2022/05/20 11:14:45;;;;;;;;;32.00;29.50;;;;;22.69;65.63;101189.44;5074078;27;47240;-73
2022/05/20 11:17:24;;;;;;;;;27.25;26.25;;;;;22.75;65.09;101205.28;5071005;27;45845;-72
2022/05/20 11:19:58;;;;;;;;;28.25;27.75;;;;;22.81;64.97;101223.00;5095044;27;45649;-71
2022/05/20 11:22:47;;;;;;;;;29.75;28.25;;;;;22.73;65.42;101205.41;5081197;27;46128;-71
2022/05/20 11:25:53;;;;;;;;;29.00;28.00;;;;;22.78;65.21;101221.38;5083137;27;45734;-75
2022/05/20 11:28:56;;;;;;;;;32.25;29.00;;;;;22.94;65.86;101246.44;5077823;27;45536;-75
2022/05/20 11:31:45;;;;;;;;;28.75;27.50;;;;;22.98;65.49;101248.94;5059137;27;45946;-74
2022/05/20 11:34:35;;;;;;;;;27.75;27.50;;;;;22.93;65.97;101224.78;5070961;27;45614;-74
2022/05/20 11:37:07;;;;;;;;;24.50;24.25;;;;;23.05;65.93;101229.25;5065334;27;46121;-75
2022/05/20 11:40:03;;;;;;;;;27.50;24.50;;;;;23.07;65.78;101221.91;5074886;27;45490;-74
2022/05/20 11:42:44;;;;;;;;;24.75;24.75;;;;;23.16;65.71;101225.75;5066971;27;45871;-73
2022/05/20 11:45:20;;;;;;;;;26.50;24.00;;;;;23.17;65.68;101221.16;5073974;28;45531;-72
2022/05/20 11:48:25;;;;;;;;;25.75;25.50;;;;;23.27;66.99;101217.63;5074227;27;45869;-73
2022/05/20 11:51:21;;;;;;;;;24.00;23.75;;;;;23.33;65.86;101224.44;5040150;28;45797;-74
2022/05/20 11:54:00;;;;;;;;;22.25;21.25;;;;;23.34;66.20;101203.50;5035940;28;45748;-74
2022/05/20 11:56:39;;;;;;;;;17.75;17.00;;;;;23.30;66.49;101165.63;5061848;28;45587;-74
2022/05/20 11:59:20;;;;;;;;;15.75;15.75;;;;;23.51;65.60;101186.69;5067124;27;45558;-74
2022/05/20 12:01:51;;;;;;;;;13.75;13.25;;;;;23.42;64.11;101160.19;5066478;28;45549;-74
2022/05/20 12:04:20;;;;;;;;;14.50;13.75;;;;;23.48;63.32;101159.69;5068459;27;47075;-74
2022/05/20 12:06:52;;;;;;;;;12.50;12.00;;;;;23.48;62.70;101157.81;5069547;27;45724;-73
2022/05/20 12:09:40;;;;;;;;;13.50;13.50;;;;;23.66;62.29;101179.16;5091368;27;45595;-74
2022/05/20 12:12:31;;;;;;;;;12.00;12.00;;;;;23.71;61.53;101185.09;5069622;28;45531;-73
2022/05/20 12:15:01;;;;;;;;;15.00;14.00;;;;;23.71;62.68;101182.38;5064311;28;45566;-74
2022/05/20 12:17:49;;;;;;;;;11.25;10.75;;;;;23.77;61.04;101190.06;5080872;27;45733;-74
2022/05/20 12:25:58;;;;;;;;;10.00;9.75;;;;;23.88;59.24;101193.78;5074634;28;45395;-73
2022/05/20 12:28:23;;;;;;;;;9.00;9.00;;;;;23.88;59.45;101202.81;5060580;28;45475;-73
2022/05/20 12:31:09;;;;;;;;;10.50;10.50;;;;;23.91;59.02;101194.41;5072275;28;46237;-72
2022/05/20 12:33:57;;;;;;;;;11.25;11.00;;;;;23.92;59.21;101201.56;5061952;27;45512;-72
2022/05/20 12:36:28;;;;;;;;;11.25;10.00;;;;;23.95;58.48;101214.09;5067323;27;45351;-73
2022/05/20 12:39:09;;;;;;;;;12.25;12.25;;;;;23.96;59.10;101213.97;5080413;28;45374;-73
2022/05/20 12:41:38;;;;;;;;;12.25;10.75;;;;;23.95;58.93;101212.22;5062023;27;47225;-73
2022/05/20 12:44:16;;;;;;;;;9.50;9.50;;;;;24.00;58.49;101225.50;5072049;27;45966;-72
2022/05/20 12:47:02;;;;;;;;;14.25;12.50;;;;;24.02;59.26;101231.69;5079786;27;45480;-72
2022/05/20 12:49:49;;;;;;;;;9.00;9.00;;;;;24.03;58.75;101227.97;5086614;27;45798;-73
2022/05/20 12:52:17;;;;;;;;;10.75;10.75;;;;;24.05;58.94;101229.56;5070633;27;45647;-73
2022/05/20 12:54:58;;;;;;;;;12.00;11.75;;;;;24.07;58.68;101239.50;5086448;27;45790;-73
2022/05/20 12:57:35;;;;;;;;;12.75;12.00;;;;;23.94;59.21;101215.97;5082261;27;46010;-73
2022/05/20 13:00:12;;;;;;;;;13.50;11.50;;;;;24.09;59.20;101245.69;5074094;27;45719;-73
2022/05/20 13:02:44;;;;;;;;;10.75;10.75;;;;;23.94;59.38;101223.25;5092412;27;46316;-73
2022/05/20 13:05:26;;;;;;;;;12.75;12.75;;;;;24.11;59.09;101260.94;5063703;27;45570;-73
2022/05/20 13:07:53;;;;;;;;;14.00;13.25;;;;;24.13;59.08;101269.84;5073658;27;45535;-73
2022/05/20 13:10:24;;;;;;;;;11.25;11.00;;;;;24.13;59.68;101271.72;5066456;27;46412;-73
2022/05/20 13:12:52;;;;;;;;;12.00;11.50;;;;;24.10;59.51;101280.16;5086713;27;45566;-73
2022/05/20 13:15:19;;;;;;;;;13.75;11.00;;;;;24.00;59.25;101280.03;5068627;27;45845;-73
2022/05/20 13:17:56;;;;;;;;;10.75;9.75;;;;;23.92;60.09;101269.72;5073225;27;45393;-73
2022/05/20 13:20:22;;;;;;;;;8.75;8.75;;;;;24.01;60.06;101295.41;5077841;27;45484;-73
2022/05/20 13:22:50;;;;;;;;;9.00;9.00;;;;;23.90;59.50;101279.91;5075506;27;46742;-73
2022/05/20 13:25:17;;;;;;;;;7.50;6.00;;;;;23.91;60.01;101314.38;5065274;27;45940;-73
2022/05/20 13:27:47;;;;;;;;;8.25;8.00;;;;;23.71;59.44;101290.53;5071466;27;45430;-73
2022/05/20 13:30:29;;;;;;;;;5.25;5.25;;;;;23.77;59.46;101326.34;5059443;27;46350;-74
2022/05/20 13:33:07;;;;;;;;;8.75;7.00;;;;;23.72;59.55;101331.25;5072766;27;47158;-74
2022/05/20 13:35:53;;;;;;;;;7.50;6.50;;;;;23.72;59.48;101331.25;5066829;27;45777;-74
2022/05/20 13:38:23;;;;;;;;;5.25;5.00;;;;;23.64;59.46;101331.03;5062212;27;45805;-74